Time;durP1;ratioP1;P1;durP2;ratioP2;P2;SDS_P1;SDS_P2;PMS_P1;PMS_P2;Temp;Humidity;BMP_temperature;BMP_pressure;BME280_temperature;BME280_humidity;BME280_pressure;Samples;Min_cycle;Max_cycle;Signal;HPM_P1;HPM_P2
2021/07/22 00:00:33;;;;;;;12.77;11.43;;;20.30;99.90;;;;;;5077939;28;20711;-75
2021/07/22 00:02:58;;;;;;;12.77;11.10;;;20.30;99.90;;;;;;5060999;28;20193;-75
2021/07/22 00:05:24;;;;;;;13.00;10.87;;;20.30;99.90;;;;;;5079083;28;20169;-74
2021/07/22 00:07:49;;;;;;;13.23;11.83;;;20.30;99.90;;;;;;5078774;28;20169;-74
2021/07/22 00:10:16;;;;;;;15.30;11.97;;;20.20;99.90;;;;;;5078084;28;20189;-75
2021/07/22 00:12:42;;;;;;;12.93;11.43;;;20.10;99.90;;;;;;5078875;28;20169;-75
2021/07/22 00:15:09;;;;;;;12.13;10.53;;;20.10;99.90;;;;;;5060228;28;20633;-75
2021/07/22 00:17:35;;;;;;;11.93;10.80;;;20.00;99.90;;;;;;5060605;28;20200;-74
2021/07/22 00:20:01;;;;;;;13.90;11.30;;;20.00;99.90;;;;;;5060401;28;20189;-75
2021/07/22 00:22:27;;;;;;;11.97;10.77;;;20.00;99.90;;;;;;5078516;28;20201;-75
2021/07/22 00:24:53;;;;;;;16.10;10.90;;;20.00;99.90;;;;;;5078158;28;20193;-74
2021/07/22 00:27:19;;;;;;;13.70;11.50;;;20.00;99.90;;;;;;5078973;28;20218;-74
2021/07/22 00:29:45;;;;;;;13.40;10.00;;;19.90;99.90;;;;;;5060417;28;20189;-75
2021/07/22 00:32:10;;;;;;;12.50;10.23;;;19.90;99.90;;;;;;5061557;28;20170;-74
2021/07/22 00:34:39;;;;;;;12.83;10.97;;;19.90;99.90;;;;;;5078394;28;20181;-74
2021/07/22 00:37:05;;;;;;;11.73;10.53;;;19.80;99.90;;;;;;5077951;28;20177;-74
2021/07/22 00:39:31;;;;;;;11.57;10.57;;;19.80;99.90;;;;;;5078104;28;20237;-75
2021/07/22 00:41:57;;;;;;;12.33;10.67;;;19.70;99.90;;;;;;5077606;28;20713;-75
2021/07/22 00:44:22;;;;;;;12.27;11.07;;;19.70;99.90;;;;;;5078007;28;20582;-74
2021/07/22 00:46:48;;;;;;;11.43;10.33;;;19.60;99.90;;;;;;5077468;28;20233;-74
2021/07/22 00:49:15;;;;;;;12.20;10.70;;;19.60;99.90;;;;;;5077498;28;20173;-74
2021/07/22 00:51:41;;;;;;;11.97;10.73;;;19.70;99.90;;;;;;5077160;28;20185;-76
2021/07/22 00:54:07;;;;;;;11.40;10.33;;;19.70;99.90;;;;;;5059990;28;20181;-75
2021/07/22 00:56:34;;;;;;;12.27;10.80;;;19.70;99.90;;;;;;5086334;28;20172;-76
2021/07/22 00:59:00;;;;;;;11.43;10.37;;;19.60;99.90;;;;;;5097900;28;20217;-76
2021/07/22 01:01:27;;;;;;;12.37;10.70;;;19.60;99.90;;;;;;5098548;28;20216;-76
2021/07/22 01:03:52;;;;;;;11.07;9.97;;;19.50;99.90;;;;;;5097944;28;20261;-75
2021/07/22 01:06:18;;;;;;;11.47;10.33;;;19.60;99.90;;;;;;5097900;28;20628;-76
2021/07/22 01:08:44;;;;;;;11.33;10.23;;;19.60;99.90;;;;;;5079657;28;20226;-74
2021/07/22 01:11:09;;;;;;;12.80;11.50;;;19.60;99.90;;;;;;5079779;28;20200;-76
2021/07/22 01:13:35;;;;;;;11.60;10.40;;;19.60;99.90;;;;;;5097897;28;20195;-74
2021/07/22 01:16:01;;;;;;;12.30;10.93;;;19.60;99.90;;;;;;5096891;28;20211;-75
2021/07/22 01:18:27;;;;;;;11.23;10.23;;;19.60;99.90;;;;;;5079707;28;20579;-76
2021/07/22 01:20:52;;;;;;;12.77;10.03;;;19.50;99.90;;;;;;5097973;28;20199;-73
2021/07/22 01:23:18;;;;;;;11.17;10.10;;;19.50;99.90;;;;;;5096975;28;20192;-73
2021/07/22 01:25:44;;;;;;;12.30;11.00;;;19.50;99.90;;;;;;5079936;28;20191;-76
2021/07/22 01:28:09;;;;;;;12.53;11.37;;;19.40;99.90;;;;;;5097152;28;20173;-73
2021/07/22 01:30:35;;;;;;;11.83;10.73;;;19.40;99.90;;;;;;5097716;28;20318;-73
2021/07/22 01:33:01;;;;;;;12.00;10.80;;;19.40;99.90;;;;;;5079381;28;20620;-74
2021/07/22 01:35:26;;;;;;;11.67;10.47;;;19.40;99.90;;;;;;5097355;28;20180;-75
2021/07/22 01:37:55;;;;;;;13.27;10.60;;;19.40;99.90;;;;;;5096395;28;20589;-75
2021/07/22 01:40:20;;;;;;;11.33;10.33;;;19.30;99.90;;;;;;5078147;28;20269;-76
2021/07/22 01:42:46;;;;;;;12.03;10.80;;;19.30;99.90;;;;;;5095212;28;20652;-75
2021/07/22 01:45:12;;;;;;;11.30;9.70;;;19.30;99.90;;;;;;5096977;28;20175;-75
2021/07/22 01:47:39;;;;;;;10.47;9.47;;;19.30;99.90;;;;;;5081713;28;20176;-74
2021/07/22 01:50:05;;;;;;;12.40;10.63;;;19.30;99.90;;;;;;5095891;28;20560;-75
2021/07/22 01:52:30;;;;;;;12.10;10.80;;;19.30;99.90;;;;;;5096981;28;20184;-74
2021/07/22 01:54:56;;;;;;;11.20;10.03;;;19.30;99.90;;;;;;5079650;28;20168;-74
2021/07/22 01:57:22;;;;;;;10.87;9.77;;;19.20;99.90;;;;;;5077816;28;20621;-74
2021/07/22 01:59:48;;;;;;;11.73;10.60;;;19.20;99.90;;;;;;5092603;28;20211;-76
2021/07/22 02:02:14;;;;;;;12.17;10.80;;;19.20;99.90;;;;;;5080017;28;20181;-74
2021/07/22 02:04:42;;;;;;;12.87;10.60;;;19.20;99.90;;;;;;5077125;28;20767;-76
2021/07/22 02:07:09;;;;;;;12.73;11.30;;;19.10;99.90;;;;;;5093695;28;20161;-75
2021/07/22 02:09:35;;;;;;;13.03;10.30;;;19.10;99.90;;;;;;5096229;28;20171;-74
2021/07/22 02:12:01;;;;;;;10.60;9.60;;;18.90;99.90;;;;;;5098255;28;20165;-74
2021/07/22 02:14:27;;;;;;;14.63;10.93;;;18.80;99.90;;;;;;5096530;28;20640;-74
2021/07/22 02:16:53;;;;;;;13.87;10.93;;;18.70;99.90;;;;;;5095685;28;20175;-74
2021/07/22 02:19:18;;;;;;;10.80;9.70;;;18.70;99.90;;;;;;5096765;28;20176;-76
2021/07/22 02:21:45;;;;;;;14.07;11.00;;;18.60;99.90;;;;;;5078777;28;20208;-74
2021/07/22 02:24:13;;;;;;;11.77;10.67;;;18.60;99.90;;;;;;5077719;28;20248;-75
2021/07/22 02:26:40;;;;;;;11.50;10.40;;;18.50;99.90;;;;;;5077559;28;20172;-75
2021/07/22 02:29:06;;;;;;;12.53;11.27;;;18.40;99.90;;;;;;5097536;28;20187;-76
2021/07/22 02:31:33;;;;;;;14.90;10.97;;;18.50;99.90;;;;;;5095694;28;20572;-74
2021/07/22 02:33:59;;;;;;;11.47;10.37;;;18.40;99.90;;;;;;5078150;28;20176;-75
2021/07/22 02:36:24;;;;;;;12.20;10.63;;;18.40;99.90;;;;;;5095605;28;20266;-75
2021/07/22 02:38:50;;;;;;;14.97;10.80;;;18.30;99.90;;;;;;5095467;28;20177;-75
2021/07/22 02:41:15;;;;;;;11.83;10.57;;;18.30;99.90;;;;;;5075720;28;20564;-76
2021/07/22 02:43:41;;;;;;;11.97;10.77;;;18.20;99.90;;;;;;5093765;28;20191;-75
2021/07/22 02:46:07;;;;;;;12.37;11.10;;;18.20;99.90;;;;;;5074546;28;20184;-75
2021/07/22 02:48:34;;;;;;;12.60;11.30;;;18.10;99.90;;;;;;5079629;28;20214;-75
2021/07/22 02:51:00;;;;;;;12.83;11.43;;;18.10;99.90;;;;;;5076703;28;20195;-76
2021/07/22 02:53:28;;;;;;;12.20;11.00;;;18.10;99.90;;;;;;5075716;28;20225;-76
2021/07/22 02:56:00;;;;;;;12.73;10.97;;;18.00;99.90;;;;;;5094085;28;20164;-76
2021/07/22 02:58:27;;;;;;;13.27;11.00;;;18.00;99.90;;;;;;5093399;28;20188;-76
2021/07/22 03:00:53;;;;;;;11.83;10.63;;;18.00;99.90;;;;;;5076024;28;20192;-76
2021/07/22 03:03:19;;;;;;;13.03;10.70;;;18.00;99.90;;;;;;5092677;28;20192;-76
2021/07/22 03:05:44;;;;;;;16.07;11.27;;;18.00;99.90;;;;;;5093318;28;20254;-76
2021/07/22 03:08:10;;;;;;;12.70;10.70;;;17.90;99.90;;;;;;5094327;28;20171;-76
2021/07/22 03:10:36;;;;;;;12.30;11.00;;;17.90;99.90;;;;;;5089703;28;20191;-76
2021/07/22 03:13:03;;;;;;;13.33;11.97;;;17.80;99.90;;;;;;5083650;28;20651;-76
2021/07/22 03:15:29;;;;;;;12.10;10.87;;;17.80;99.90;;;;;;5084692;28;20597;-76
2021/07/22 03:17:55;;;;;;;12.97;11.33;;;17.80;99.90;;;;;;5081757;28;20203;-75
2021/07/22 03:20:20;;;;;;;11.40;10.20;;;17.70;99.90;;;;;;5074385;28;20193;-75
2021/07/22 03:22:46;;;;;;;11.83;10.70;;;17.80;99.90;;;;;;5075101;28;20793;-75
2021/07/22 03:25:12;;;;;;;12.13;10.97;;;17.80;99.90;;;;;;5057188;28;20183;-75
2021/07/22 03:27:38;;;;;;;11.37;10.37;;;17.70;99.90;;;;;;5057587;28;20173;-75
2021/07/22 03:30:04;;;;;;;15.93;11.97;;;17.70;99.90;;;;;;5075585;28;20338;-76
2021/07/22 03:32:30;;;;;;;13.90;11.60;;;17.70;99.90;;;;;;5075651;28;20185;-75
2021/07/22 03:34:55;;;;;;;12.33;11.10;;;17.70;99.90;;;;;;5074864;28;20235;-75
2021/07/22 03:37:21;;;;;;;11.50;10.40;;;17.60;99.90;;;;;;5075302;28;20173;-75
2021/07/22 03:39:46;;;;;;;12.57;11.33;;;17.60;99.90;;;;;;5057327;28;20195;-75
2021/07/22 03:42:12;;;;;;;14.67;11.00;;;17.60;99.90;;;;;;5074459;28;20169;-75
2021/07/22 03:44:38;;;;;;;11.60;10.40;;;17.50;99.90;;;;;;5074374;28;20181;-75
2021/07/22 03:47:04;;;;;;;13.27;10.93;;;17.60;99.90;;;;;;5074717;28;20170;-75
2021/07/22 03:49:30;;;;;;;12.13;10.90;;;17.60;99.90;;;;;;5074043;28;20248;-74
2021/07/22 03:51:57;;;;;;;12.40;10.97;;;17.60;99.90;;;;;;5070445;28;20215;-76
2021/07/22 03:54:23;;;;;;;13.77;11.10;;;17.60;99.90;;;;;;5114265;22;20255;-72
2021/07/22 03:56:50;;;;;;;13.97;10.80;;;17.50;99.90;;;;;;5054743;28;20641;-74
2021/07/22 03:59:16;;;;;;;12.43;11.17;;;17.50;99.90;;;;;;5072919;28;20219;-74
2021/07/22 04:01:42;;;;;;;12.13;10.83;;;17.50;99.90;;;;;;5064017;28;20307;-74
2021/07/22 04:04:09;;;;;;;20.23;11.60;;;17.50;99.90;;;;;;5067221;28;20212;-73
2021/07/22 04:06:39;;;;;;;13.33;11.67;;;17.40;99.90;;;;;;5053767;28;20581;-74
2021/07/22 04:09:05;;;;;;;16.13;10.90;;;17.40;99.90;;;;;;5071434;28;20149;-74
2021/07/22 04:11:31;;;;;;;14.03;11.93;;;17.40;99.90;;;;;;5071307;28;20676;-72
2021/07/22 04:13:57;;;;;;;11.30;10.20;;;17.40;99.90;;;;;;5070510;28;20194;-73
2021/07/22 04:16:23;;;;;;;11.70;10.60;;;17.50;99.90;;;;;;5071308;28;20286;-73
2021/07/22 04:18:48;;;;;;;16.87;11.40;;;17.50;99.90;;;;;;5072457;28;20165;-74
2021/07/22 04:21:14;;;;;;;13.93;11.03;;;17.50;99.90;;;;;;5074461;28;20201;-74
2021/07/22 04:23:40;;;;;;;13.83;11.60;;;17.40;99.90;;;;;;5076237;28;20247;-74
2021/07/22 04:26:05;;;;;;;12.67;11.17;;;17.40;99.90;;;;;;5075936;28;20251;-73
2021/07/22 04:28:31;;;;;;;12.43;11.20;;;17.40;99.90;;;;;;5075992;28;20239;-73
2021/07/22 04:30:56;;;;;;;13.20;11.77;;;17.40;99.90;;;;;;5075947;28;20172;-73
2021/07/22 04:33:22;;;;;;;12.27;10.97;;;17.40;99.90;;;;;;5075795;28;20180;-75
2021/07/22 04:35:48;;;;;;;17.13;11.57;;;17.40;99.90;;;;;;5076115;28;20176;-74
2021/07/22 04:38:14;;;;;;;17.23;11.73;;;17.40;99.90;;;;;;5057778;28;20185;-74
2021/07/22 04:40:39;;;;;;;13.60;12.30;;;17.40;99.90;;;;;;5058406;28;20297;-73
2021/07/22 04:43:05;;;;;;;13.67;11.77;;;17.30;99.90;;;;;;5057833;28;20220;-73
2021/07/22 04:45:30;;;;;;;12.97;11.67;;;17.30;99.90;;;;;;5075074;28;20196;-74
2021/07/22 04:47:56;;;;;;;16.57;11.50;;;17.30;99.90;;;;;;5075646;28;20256;-73
2021/07/22 04:50:22;;;;;;;12.13;10.93;;;17.30;99.90;;;;;;5077958;28;20222;-80
2021/07/22 04:52:47;;;;;;;12.90;11.53;;;17.40;99.90;;;;;;5066591;28;20752;-79
2021/07/22 04:55:13;;;;;;;11.87;10.77;;;17.50;99.90;;;;;;5080744;28;20669;-78
2021/07/22 04:57:38;;;;;;;17.70;10.90;;;17.60;99.90;;;;;;5069115;28;20641;-78
2021/07/22 05:00:06;;;;;;;13.83;10.37;;;17.70;99.90;;;;;;5087611;28;20180;-79
2021/07/22 05:02:32;;;;;;;12.63;10.80;;;17.80;99.90;;;;;;5069712;28;20259;-80
2021/07/22 05:04:57;;;;;;;12.07;10.17;;;17.90;99.90;;;;;;5068680;28;20197;-80
2021/07/22 05:07:23;;;;;;;15.30;10.90;;;17.90;99.90;;;;;;5087321;28;20204;-80
2021/07/22 05:09:49;;;;;;;11.53;10.40;;;18.00;99.90;;;;;;5068785;28;20279;-79
2021/07/22 05:12:15;;;;;;;12.10;10.23;;;18.00;99.90;;;;;;5086121;28;20165;-79
2021/07/22 05:14:40;;;;;;;11.37;10.33;;;18.10;99.90;;;;;;5086912;28;20228;-79
2021/07/22 05:17:06;;;;;;;13.03;10.50;;;18.20;99.90;;;;;;5087437;28;20169;-79
2021/07/22 05:19:32;;;;;;;12.33;11.13;;;18.20;99.90;;;;;;5069790;28;20189;-79
2021/07/22 05:21:58;;;;;;;11.43;10.23;;;18.30;99.90;;;;;;5087279;28;20181;-79
2021/07/22 05:24:23;;;;;;;10.70;9.60;;;18.30;99.90;;;;;;5068899;28;20626;-79
2021/07/22 05:26:49;;;;;;;11.47;10.20;;;18.40;99.90;;;;;;5087490;28;20196;-79
2021/07/22 05:29:15;;;;;;;12.00;10.63;;;18.40;99.90;;;;;;5068981;28;20181;-80
2021/07/22 05:31:42;;;;;;;13.27;10.53;;;18.50;99.90;;;;;;5087577;28;20169;-80
2021/07/22 05:34:09;;;;;;;13.13;10.07;;;18.50;99.90;;;;;;5087441;28;20189;-78
2021/07/22 05:36:34;;;;;;;11.03;9.93;;;18.60;99.90;;;;;;5069140;28;20173;-79
2021/07/22 05:39:00;;;;;;;11.63;10.47;;;18.60;99.90;;;;;;5087464;28;20184;-79
2021/07/22 05:41:26;;;;;;;11.30;10.20;;;18.70;99.90;;;;;;5087685;28;20230;-79
2021/07/22 05:43:52;;;;;;;11.50;10.33;;;18.90;99.90;;;;;;5068970;28;20640;-79
2021/07/22 05:46:19;;;;;;;11.90;10.13;;;19.00;99.90;;;;;;5087820;28;20169;-79
2021/07/22 05:48:46;;;;;;;14.73;9.60;;;19.10;99.90;;;;;;5086975;28;20177;-79
2021/07/22 05:51:11;;;;;;;10.50;9.50;;;19.10;99.90;;;;;;5068647;28;20173;-79
2021/07/22 05:53:37;;;;;;;10.63;9.53;;;19.20;99.90;;;;;;5069815;28;20221;-79
2021/07/22 05:56:03;;;;;;;11.57;9.63;;;19.30;99.90;;;;;;5086953;28;20200;-79
2021/07/22 05:58:29;;;;;;;10.83;9.70;;;19.30;99.90;;;;;;5069635;28;20173;-79
2021/07/22 06:00:54;;;;;;;14.00;9.93;;;19.40;99.90;;;;;;5068996;28;20173;-79
2021/07/22 06:03:21;;;;;;;12.60;9.73;;;19.40;99.90;;;;;;5069190;28;20205;-80
2021/07/22 06:05:47;;;;;;;10.73;9.70;;;19.50;99.90;;;;;;5054914;28;20183;-79
2021/07/22 06:08:13;;;;;;;11.30;9.40;;;19.50;99.90;;;;;;5067332;28;20162;-79
2021/07/22 06:10:38;;;;;;;10.40;9.37;;;19.60;99.90;;;;;;5067734;28;20172;-79
2021/07/22 06:13:04;;;;;;;14.73;10.30;;;19.60;99.90;;;;;;5049657;28;20178;-79
2021/07/22 06:15:30;;;;;;;13.53;10.33;;;19.70;99.90;;;;;;5065632;28;20213;-79
2021/07/22 06:17:55;;;;;;;10.47;9.40;;;19.80;99.90;;;;;;5049217;28;20174;-79
2021/07/22 06:20:21;;;;;;;13.13;10.13;;;19.80;99.90;;;;;;5051451;28;20178;-79
2021/07/22 06:22:47;;;;;;;10.90;9.80;;;19.90;99.90;;;;;;5050162;28;20173;-79
2021/07/22 06:25:14;;;;;;;14.47;11.40;;;19.90;99.90;;;;;;5051721;28;20197;-79
2021/07/22 06:27:40;;;;;;;10.50;9.50;;;20.00;99.90;;;;;;5068371;28;20174;-79
2021/07/22 06:30:06;;;;;;;11.37;10.27;;;20.00;99.90;;;;;;5068058;28;20172;-79
2021/07/22 06:32:32;;;;;;;15.87;10.10;;;20.10;99.90;;;;;;5050292;28;20203;-79
2021/07/22 06:34:58;;;;;;;11.30;10.10;;;20.10;99.90;;;;;;5068025;28;20197;-78
2021/07/22 06:37:23;;;;;;;11.60;9.60;;;20.10;99.90;;;;;;5068582;28;20169;-79
2021/07/22 06:39:49;;;;;;;10.37;9.37;;;20.10;99.90;;;;;;5050083;28;20174;-79
2021/07/22 06:42:14;;;;;;;13.97;10.27;;;20.10;99.90;;;;;;5049920;28;20181;-79
2021/07/22 06:44:40;;;;;;;11.43;9.50;;;20.10;99.90;;;;;;5049645;28;20205;-79
2021/07/22 06:47:06;;;;;;;17.10;11.00;;;20.00;99.90;;;;;;5067215;28;20198;-79
2021/07/22 06:49:31;;;;;;;11.90;10.70;;;20.10;99.90;;;;;;5067205;28;20170;-79
2021/07/22 06:51:59;;;;;;;15.40;10.83;;;20.10;99.90;;;;;;5067736;28;20170;-79
2021/07/22 06:54:25;;;;;;;13.63;10.33;;;20.10;99.90;;;;;;5048945;28;20216;-79
2021/07/22 06:56:50;;;;;;;13.77;10.27;;;20.30;99.90;;;;;;5049662;28;20177;-79
2021/07/22 06:59:16;;;;;;;12.87;10.20;;;20.30;99.90;;;;;;5068531;28;20208;-79
2021/07/22 07:01:42;;;;;;;14.27;10.47;;;20.30;99.90;;;;;;5049505;28;20178;-79
2021/07/22 07:04:08;;;;;;;12.50;11.30;;;20.30;99.90;;;;;;5052293;28;20205;-77
2021/07/22 07:06:34;;;;;;;16.70;11.20;;;20.40;99.90;;;;;;5067072;28;20174;-79
2021/07/22 07:09:00;;;;;;;11.73;10.67;;;20.30;99.90;;;;;;5067247;28;20173;-79
2021/07/22 07:11:26;;;;;;;11.47;10.17;;;20.40;99.90;;;;;;5067078;28;20170;-79
2021/07/22 07:13:52;;;;;;;12.43;10.77;;;20.50;99.90;;;;;;5066413;28;20261;-79
2021/07/22 07:16:17;;;;;;;12.67;10.57;;;20.50;99.90;;;;;;5049611;28;20186;-79
2021/07/22 07:18:43;;;;;;;13.70;11.10;;;20.50;99.90;;;;;;5067513;28;20174;-79
2021/07/22 07:21:09;;;;;;;11.33;10.27;;;20.60;99.90;;;;;;5066684;28;20229;-79
2021/07/22 07:23:34;;;;;;;11.43;10.23;;;20.70;99.90;;;;;;5049621;28;20240;-79
2021/07/22 07:26:00;;;;;;;13.13;9.77;;;20.70;99.90;;;;;;5050771;28;20241;-79
2021/07/22 07:28:27;;;;;;;11.93;9.73;;;20.70;99.90;;;;;;5048630;28;20196;-80
2021/07/22 07:30:52;;;;;;;14.90;10.50;;;20.70;99.90;;;;;;5065840;28;20177;-79
2021/07/22 07:33:40;;;;;;;10.60;9.50;;;20.80;99.90;;;;;;5048083;28;20237;-80
2021/07/22 07:36:05;;;;;;;11.70;10.60;;;20.90;99.90;;;;;;5048310;28;20220;-79
2021/07/22 07:38:31;;;;;;;11.20;10.20;;;21.00;99.90;;;;;;5066600;28;20173;-79
2021/07/22 07:40:57;;;;;;;10.50;9.50;;;21.00;99.90;;;;;;5048334;28;20204;-79
2021/07/22 07:43:22;;;;;;;11.50;10.23;;;21.00;99.90;;;;;;5049365;28;20224;-80
2021/07/22 07:45:48;;;;;;;10.57;9.67;;;21.10;99.90;;;;;;5065987;28;20174;-79
2021/07/22 07:48:14;;;;;;;11.13;9.73;;;21.10;99.90;;;;;;5066264;28;20169;-80
2021/07/22 07:50:39;;;;;;;12.90;10.50;;;21.20;99.90;;;;;;5048438;28;20201;-80
2021/07/22 07:53:16;;;;;;;14.40;10.70;;;21.30;99.90;;;;;;5066039;28;20170;-79
2021/07/22 07:55:43;;;;;;;11.90;10.03;;;21.40;99.90;;;;;;5067418;28;20226;-80
2021/07/22 07:58:09;;;;;;;14.47;10.20;;;21.60;99.90;;;;;;5052378;28;20170;-80
2021/07/22 08:00:35;;;;;;;11.77;10.57;;;21.60;99.90;;;;;;5069362;28;20263;-80
2021/07/22 08:03:02;;;;;;;11.60;10.13;;;21.60;99.90;;;;;;5069549;28;20193;-80
2021/07/22 08:05:28;;;;;;;11.90;9.90;;;21.80;99.90;;;;;;5070896;28;20232;-80
2021/07/22 08:07:54;;;;;;;11.90;10.70;;;21.80;99.90;;;;;;5054655;28;20177;-80
2021/07/22 08:10:20;;;;;;;12.40;10.40;;;21.80;99.90;;;;;;5052674;28;20653;-80
2021/07/22 08:12:46;;;;;;;11.37;10.30;;;21.90;99.90;;;;;;5069922;28;20174;-80
2021/07/22 08:15:13;;;;;;;12.33;10.97;;;21.90;99.90;;;;;;5069491;28;20198;-80
2021/07/22 08:17:39;;;;;;;12.57;10.67;;;22.00;99.90;;;;;;5049736;28;20257;-80
2021/07/22 08:20:06;;;;;;;12.20;11.00;;;22.10;99.90;;;;;;5050847;28;20177;-80
2021/07/22 08:22:36;;;;;;;11.93;10.70;;;22.20;99.90;;;;;;5050993;28;20269;-80
2021/07/22 08:25:02;;;;;;;11.13;10.03;;;22.30;99.90;;;;;;5051291;28;20578;-80
2021/07/22 08:27:29;;;;;;;13.60;10.17;;;22.30;99.90;;;;;;5069114;28;20166;-80
2021/07/22 08:29:56;;;;;;;13.03;10.70;;;22.40;99.90;;;;;;5069633;28;20220;-80
2021/07/22 08:32:22;;;;;;;11.67;10.47;;;22.60;99.90;;;;;;5069950;28;20205;-80
2021/07/22 08:34:48;;;;;;;11.80;10.53;;;22.70;99.90;;;;;;5068800;28;20194;-80
2021/07/22 08:37:14;;;;;;;11.37;10.37;;;22.70;99.90;;;;;;5051328;28;20193;-80
2021/07/22 08:39:42;;;;;;;11.97;10.87;;;22.80;99.90;;;;;;5068731;28;20208;-80
2021/07/22 08:42:09;;;;;;;10.93;9.70;;;23.00;99.90;;;;;;5068807;28;20170;-80
2021/07/22 08:44:42;;;;;;;11.37;10.30;;;23.10;99.90;;;;;;5068410;28;20205;-80
2021/07/22 08:47:09;;;;;;;11.80;10.50;;;23.10;99.90;;;;;;5050673;28;20200;-79
2021/07/22 08:49:39;;;;;;;11.57;10.37;;;23.10;99.90;;;;;;5070166;28;20178;-80
2021/07/22 08:52:09;;;;;;;12.17;11.07;;;23.20;99.90;;;;;;5069256;28;20188;-80
2021/07/22 08:54:36;;;;;;;11.43;10.40;;;23.50;99.90;;;;;;5067747;28;20212;-80
2021/07/22 08:57:02;;;;;;;13.83;11.03;;;23.60;99.90;;;;;;5051085;28;20193;-79
2021/07/22 08:59:33;;;;;;;11.97;10.73;;;23.90;99.90;;;;;;5050442;28;20178;-80
2021/07/22 09:02:01;;;;;;;11.53;10.37;;;23.90;99.90;;;;;;5051464;28;20166;-80
2021/07/22 09:04:28;;;;;;;13.37;10.70;;;23.80;99.90;;;;;;5069131;28;20212;-80
2021/07/22 09:06:54;;;;;;;12.13;10.67;;;23.80;99.90;;;;;;5050136;28;20174;-80
2021/07/22 09:09:20;;;;;;;16.20;12.50;;;23.90;99.90;;;;;;5069958;28;20177;-81
2021/07/22 09:12:01;;;;;;;14.77;13.07;;;24.00;99.90;;;;;;5051857;28;20184;-80
2021/07/22 09:14:28;;;;;;;14.17;12.07;;;24.00;99.90;;;;;;5068873;28;20193;-79
2021/07/22 09:16:55;;;;;;;15.57;12.73;;;24.10;99.90;;;;;;5050820;28;20209;-80
2021/07/22 09:19:40;;;;;;;16.50;12.90;;;24.10;99.90;;;;;;5050899;28;20188;-80
2021/07/22 09:22:08;;;;;;;15.70;12.77;;;24.20;99.90;;;;;;5049724;28;20189;-80
2021/07/22 09:24:53;;;;;;;15.07;12.40;;;24.50;99.90;;;;;;5067026;28;20205;-80
2021/07/22 09:27:41;;;;;;;14.40;12.67;;;24.50;99.90;;;;;;5067234;28;20634;-80
2021/07/22 09:30:09;;;;;;;13.07;11.63;;;24.60;99.90;;;;;;5068723;28;20201;-80
2021/07/22 09:32:37;;;;;;;15.53;12.80;;;24.60;99.90;;;;;;5049593;28;20540;-80
2021/07/22 09:35:13;;;;;;;16.77;12.10;;;24.60;99.90;;;;;;5066792;28;20193;-80
2021/07/22 09:37:56;;;;;;;23.67;16.13;;;24.70;99.90;;;;;;5049447;28;20593;-80
2021/07/22 09:40:24;;;;;;;18.53;14.47;;;24.90;99.90;;;;;;5067605;28;20158;-80
2021/07/22 09:42:54;;;;;;;16.80;14.00;;;25.00;99.90;;;;;;5048889;28;20174;-80
2021/07/22 09:45:23;;;;;;;18.13;13.10;;;25.10;99.90;;;;;;5049779;28;20693;-79
2021/07/22 09:47:50;;;;;;;21.37;13.47;;;25.20;99.90;;;;;;5066828;28;20170;-80
2021/07/22 09:50:17;;;;;;;22.13;14.57;;;25.30;99.90;;;;;;5048523;28;20184;-80
2021/07/22 09:52:44;;;;;;;19.20;13.80;;;25.30;99.90;;;;;;5049225;28;20252;-80
2021/07/22 09:55:36;;;;;;;17.43;13.43;;;25.30;99.90;;;;;;5077363;23;20224;-77
2021/07/22 09:58:08;;;;;;;31.00;15.20;;;25.30;99.90;;;;;;5072006;28;20188;-76
2021/07/22 10:00:35;;;;;;;18.63;13.57;;;25.40;99.90;;;;;;5074579;28;20256;-77
2021/07/22 10:03:05;;;;;;;13.27;11.97;;;25.30;99.90;;;;;;5074554;28;20193;-76
2021/07/22 10:05:54;;;;;;;13.27;11.67;;;25.40;99.90;;;;;;5074250;28;20264;-77
2021/07/22 10:08:20;;;;;;;13.97;12.63;;;25.50;99.90;;;;;;5073788;28;20185;-77
2021/07/22 10:10:53;;;;;;;18.43;13.87;;;25.60;99.90;;;;;;5074659;28;20161;-77
2021/07/22 10:13:29;;;;;;;20.10;13.27;;;25.80;99.90;;;;;;5074388;28;20165;-77
2021/07/22 10:15:57;;;;;;;15.27;12.13;;;25.80;99.90;;;;;;5073145;28;20228;-77
2021/07/22 10:18:26;;;;;;;13.63;12.23;;;25.80;99.90;;;;;;5074143;28;20165;-77
2021/07/22 10:20:59;;;;;;;15.97;13.90;;;26.00;99.90;;;;;;5074225;28;20218;-77
2021/07/22 10:23:25;;;;;;;15.87;12.80;;;26.00;99.90;;;;;;5073913;28;20181;-76
2021/07/22 10:25:51;;;;;;;12.50;11.30;;;26.10;99.90;;;;;;5064520;28;20250;-76
2021/07/22 10:28:18;;;;;;;13.83;12.53;;;26.20;99.90;;;;;;5075875;28;20170;-77
2021/07/22 10:30:45;;;;;;;16.67;12.50;;;26.40;99.90;;;;;;5075461;28;20168;-77
2021/07/22 10:33:12;;;;;;;15.10;13.00;;;26.50;99.90;;;;;;5057154;28;20208;-77
2021/07/22 10:35:38;;;;;;;14.70;13.03;;;26.80;99.90;;;;;;5057581;28;20204;-77
2021/07/22 10:38:14;;;;;;;16.73;12.53;;;26.70;99.90;;;;;;5075125;28;20653;-77
2021/07/22 10:40:47;;;;;;;16.13;12.73;;;26.60;99.90;;;;;;5074955;28;20176;-77
2021/07/22 10:43:41;;;;;;;16.77;12.80;;;26.70;99.90;;;;;;5072101;28;20242;-77
2021/07/22 10:46:07;;;;;;;13.13;11.53;;;26.70;99.90;;;;;;5054564;28;20299;-77
2021/07/22 10:48:33;;;;;;;13.10;11.80;;;26.80;99.90;;;;;;5054720;28;20623;-76
2021/07/22 10:51:00;;;;;;;14.57;12.60;;;27.00;99.90;;;;;;5061454;28;20209;-77
2021/07/22 10:53:44;;;;;;;14.20;12.27;;;27.00;99.90;;;;;;5048392;28;20209;-77
2021/07/22 10:56:42;;;;;;;13.10;11.73;;;27.00;99.90;;;;;;5055208;28;20213;-77
2021/07/22 10:59:08;;;;;;;13.60;12.20;;;27.00;99.90;;;;;;5065002;28;20212;-77
2021/07/22 11:01:42;;;;;;;13.87;12.30;;;27.30;99.90;;;;;;5054880;28;20207;-77
2021/07/22 11:04:27;;;;;;;13.27;12.00;;;27.10;99.90;;;;;;5048759;28;20297;-76
2021/07/22 11:06:59;;;;;;;18.13;12.63;;;27.20;99.90;;;;;;5052170;28;20177;-77
2021/07/22 11:09:47;;;;;;;16.63;12.33;;;27.20;99.90;;;;;;5069063;28;20188;-76
2021/07/22 11:12:36;;;;;;;13.40;12.00;;;27.20;99.90;;;;;;5049890;28;20219;-77
2021/07/22 11:15:04;;;;;;;14.23;12.83;;;27.60;99.90;;;;;;5059384;28;20247;-77
2021/07/22 11:17:31;;;;;;;13.63;12.23;;;27.70;99.90;;;;;;5062603;28;20186;-76
2021/07/22 11:20:20;;;;;;;12.83;11.53;;;27.70;99.90;;;;;;5065179;28;20227;-77
2021/07/22 11:22:46;;;;;;;14.93;13.30;;;27.50;99.90;;;;;;5036504;28;20185;-77
2021/07/22 11:25:14;;;;;;;13.37;11.97;;;27.40;99.90;;;;;;5052030;28;20217;-77
2021/07/22 11:27:49;;;;;;;13.57;12.17;;;27.40;99.90;;;;;;5065117;28;20227;-76
2021/07/22 11:30:17;;;;;;;13.83;12.43;;;27.50;99.90;;;;;;5075383;28;20169;-77
2021/07/22 11:32:43;;;;;;;13.73;12.27;;;27.40;99.90;;;;;;5076685;28;20184;-77
2021/07/22 11:35:10;;;;;;;13.90;12.40;;;27.90;99.90;;;;;;5075658;28;20223;-77
2021/07/22 11:37:36;;;;;;;14.40;11.97;;;28.00;99.90;;;;;;5075635;28;20176;-77
2021/07/22 11:40:11;;;;;;;15.57;12.33;;;28.00;99.90;;;;;;5075651;28;20543;-77
2021/07/22 11:42:47;;;;;;;14.40;12.90;;;28.20;99.90;;;;;;5076917;28;20165;-77
2021/07/22 11:45:13;;;;;;;13.43;12.03;;;28.40;99.90;;;;;;5076863;28;20192;-77
2021/07/22 11:47:38;;;;;;;18.83;12.63;;;28.40;99.90;;;;;;5077084;28;20613;-77
2021/07/22 11:50:05;;;;;;;13.50;12.00;;;28.20;99.90;;;;;;5077249;28;20248;-77
2021/07/22 11:52:30;;;;;;;13.33;12.10;;;28.20;99.90;;;;;;5059235;28;20584;-78
2021/07/22 11:55:08;;;;;;;12.87;11.67;;;28.20;99.90;;;;;;5076443;28;20213;-77
2021/07/22 11:57:44;;;;;;;13.40;12.10;;;28.30;99.90;;;;;;5076687;28;20157;-77
2021/07/22 12:00:13;;;;;;;14.37;11.90;;;28.30;99.90;;;;;;5058820;28;20255;-77
2021/07/22 12:02:43;;;;;;;14.97;13.03;;;28.30;99.90;;;;;;5076664;28;20165;-77
2021/07/22 12:05:09;;;;;;;14.37;11.90;;;28.20;99.90;;;;;;5076363;28;20216;-78
2021/07/22 12:07:35;;;;;;;14.00;12.60;;;28.40;99.90;;;;;;5076332;28;20179;-77
2021/07/22 12:10:01;;;;;;;13.53;12.23;;;28.60;99.90;;;;;;5058621;28;20264;-77
2021/07/22 12:12:26;;;;;;;14.07;12.30;;;28.60;99.90;;;;;;5076744;28;20165;-77
2021/07/22 12:15:06;;;;;;;13.93;12.10;;;28.70;99.90;;;;;;5058387;28;20200;-78
2021/07/22 12:17:33;;;;;;;12.83;11.60;;;28.60;99.90;;;;;;5076708;28;20157;-77
2021/07/22 12:19:58;;;;;;;13.70;12.40;;;28.70;99.90;;;;;;5058374;28;20234;-77
2021/07/22 12:22:32;;;;;;;14.07;12.73;;;28.80;99.90;;;;;;5076495;28;20176;-77
2021/07/22 12:25:06;;;;;;;13.63;12.27;;;28.90;99.90;;;;;;5076818;28;20201;-77
2021/07/22 12:27:35;;;;;;;14.00;12.60;;;28.90;99.90;;;;;;5076414;28;20258;-77
2021/07/22 12:30:07;;;;;;;14.50;12.33;;;28.80;99.90;;;;;;5076035;28;20541;-77